Time;durP1;ratioP1;P1;durP2;ratioP2;P2;SDS_P1;SDS_P2;PMS_P1;PMS_P2;Temp;Humidity;BMP_temperature;BMP_pressure;BME280_temperature;BME280_humidity;BME280_pressure;Samples;Min_cycle;Max_cycle;Signal;HPM_P1;HPM_P2
2021/04/01 00:00:29;;;;;;;9.17;8.27;;;16.90;53.80;;;;;;4962728;28;20972;-74
2021/04/01 00:02:55;;;;;;;9.57;7.47;;;16.90;54.50;;;;;;4961734;28;20213;-74
2021/04/01 00:05:24;;;;;;;9.00;7.13;;;16.80;54.10;;;;;;4962971;28;20478;-73
2021/04/01 00:07:50;;;;;;;11.67;7.70;;;16.80;54.40;;;;;;4960249;28;20213;-76
2021/04/01 00:10:19;;;;;;;9.50;6.03;;;16.80;54.90;;;;;;4963890;28;20457;-74
2021/04/01 00:12:45;;;;;;;10.33;7.07;;;16.80;54.50;;;;;;4962871;28;20441;-72
2021/04/01 00:15:12;;;;;;;10.50;6.77;;;16.80;54.60;;;;;;4961990;28;20864;-75
2021/04/01 00:17:42;;;;;;;12.40;7.90;;;16.70;54.10;;;;;;4963025;28;20222;-74
2021/04/01 00:20:11;;;;;;;10.37;7.97;;;16.70;54.40;;;;;;4960743;28;20836;-75
2021/04/01 00:22:37;;;;;;;11.27;7.63;;;16.60;54.60;;;;;;4959957;28;20504;-75
2021/04/01 00:25:03;;;;;;;17.37;8.17;;;16.60;54.70;;;;;;4962610;28;20516;-75
2021/04/01 00:27:29;;;;;;;7.80;7.00;;;16.60;54.60;;;;;;4961865;28;20446;-73
2021/04/01 00:29:55;;;;;;;7.27;6.23;;;16.50;54.60;;;;;;4960779;28;21381;-74
2021/04/01 00:32:20;;;;;;;8.03;6.43;;;16.40;54.60;;;;;;4964797;28;20241;-74
2021/04/01 00:34:46;;;;;;;7.63;5.90;;;16.30;54.70;;;;;;4961676;28;20681;-73
2021/04/01 00:37:11;;;;;;;8.67;5.60;;;16.20;54.70;;;;;;4963270;28;20223;-73
2021/04/01 00:39:37;;;;;;;7.33;5.80;;;16.10;54.60;;;;;;4962492;28;20222;-73
2021/04/01 00:42:04;;;;;;;7.60;6.10;;;16.00;54.80;;;;;;4960872;28;20199;-73
2021/04/01 00:44:30;;;;;;;7.70;6.40;;;16.00;55.20;;;;;;4960449;28;20249;-74
2021/04/01 00:46:56;;;;;;;7.60;6.00;;;16.00;55.10;;;;;;4961611;28;20457;-73
2021/04/01 00:49:21;;;;;;;7.77;5.83;;;16.00;55.40;;;;;;4960659;28;21130;-74
2021/04/01 00:51:47;;;;;;;5.73;5.23;;;16.00;55.60;;;;;;4960420;28;20191;-74
2021/04/01 00:54:13;;;;;;;8.07;5.57;;;16.00;55.60;;;;;;4962823;28;20199;-74
2021/04/01 00:56:39;;;;;;;6.67;4.77;;;16.00;55.70;;;;;;4959536;28;20198;-73
2021/04/01 00:59:05;;;;;;;5.80;5.30;;;15.90;55.60;;;;;;4961376;28;20596;-73
2021/04/01 01:01:51;;;;;;;6.40;5.80;;;15.90;55.90;;;;;;4961176;28;20453;-73
2021/04/01 01:04:17;;;;;;;6.93;5.53;;;15.80;56.00;;;;;;4962291;28;20569;-73
2021/04/01 01:06:44;;;;;;;5.83;5.10;;;15.80;56.20;;;;;;4962573;28;20822;-74
2021/04/01 01:09:11;;;;;;;7.53;5.80;;;15.80;56.30;;;;;;4962017;28;20564;-74
2021/04/01 01:11:37;;;;;;;6.23;5.40;;;15.80;56.20;;;;;;4960129;28;20461;-73
2021/04/01 01:14:05;;;;;;;6.00;5.43;;;15.70;56.60;;;;;;4960964;28;20460;-75
2021/04/01 01:16:31;;;;;;;8.43;5.93;;;15.70;56.70;;;;;;4961694;28;20508;-74
2021/04/01 01:18:57;;;;;;;7.67;6.47;;;15.70;56.50;;;;;;4962119;28;20468;-73
2021/04/01 01:21:23;;;;;;;8.17;5.30;;;15.70;56.60;;;;;;4959477;28;20485;-74
2021/04/01 01:23:50;;;;;;;5.80;5.20;;;15.70;56.30;;;;;;4962992;28;20285;-75
2021/04/01 01:26:16;;;;;;;8.70;5.50;;;15.70;56.60;;;;;;4959881;28;20343;-74
2021/04/01 01:28:42;;;;;;;8.87;5.97;;;15.70;56.80;;;;;;4960877;28;20453;-75
2021/04/01 01:31:09;;;;;;;4.97;4.47;;;15.60;57.00;;;;;;4960974;28;20454;-74
2021/04/01 01:33:41;;;;;;;5.93;5.00;;;15.60;57.30;;;;;;4962300;28;20456;-74
2021/04/01 01:36:08;;;;;;;6.20;4.77;;;15.60;57.50;;;;;;4960828;28;20445;-74
2021/04/01 01:38:34;;;;;;;10.33;6.33;;;15.60;57.60;;;;;;4961437;28;20984;-74
2021/04/01 01:40:59;;;;;;;5.47;4.97;;;15.60;58.00;;;;;;4959154;28;20445;-75
2021/04/01 01:43:25;;;;;;;5.90;5.20;;;15.50;58.00;;;;;;4961791;28;20338;-75
2021/04/01 01:45:51;;;;;;;6.50;5.40;;;15.50;58.10;;;;;;4960875;28;21110;-73
2021/04/01 01:48:17;;;;;;;5.77;5.27;;;15.50;58.00;;;;;;4960918;28;20318;-75
2021/04/01 01:50:43;;;;;;;7.23;5.80;;;15.50;58.10;;;;;;4959783;28;20553;-76
2021/04/01 01:53:09;;;;;;;6.07;5.50;;;15.40;58.50;;;;;;4962538;28;20322;-73
2021/04/01 01:55:36;;;;;;;7.37;6.00;;;15.40;59.00;;;;;;4958159;28;20736;-73
2021/04/01 01:58:03;;;;;;;9.23;5.60;;;15.30;59.80;;;;;;4949143;28;20454;-73
2021/04/01 02:00:44;;;;;;;5.97;5.10;;;15.30;59.40;;;;;;4961266;28;20457;-73
2021/04/01 02:03:11;;;;;;;7.17;5.23;;;15.30;59.60;;;;;;4958993;28;20434;-74
2021/04/01 02:05:38;;;;;;;10.00;6.53;;;15.20;60.10;;;;;;4963166;28;20469;-73
2021/04/01 02:08:05;;;;;;;9.90;6.10;;;15.20;60.40;;;;;;4960774;28;20442;-75
2021/04/01 02:10:36;;;;;;;10.17;5.70;;;15.20;61.50;;;;;;4962859;28;20442;-74
2021/04/01 02:13:03;;;;;;;7.07;5.50;;;15.20;62.40;;;;;;4960552;28;20917;-73
2021/04/01 02:15:36;;;;;;;8.53;6.23;;;15.10;62.40;;;;;;4961792;28;20449;-74
2021/04/01 02:18:12;;;;;;;10.03;5.80;;;15.10;62.50;;;;;;4960149;28;20419;-73
2021/04/01 02:20:45;;;;;;;7.00;5.90;;;15.10;62.30;;;;;;4958442;28;21066;-74
2021/04/01 02:23:17;;;;;;;6.00;5.07;;;15.00;62.30;;;;;;4960749;28;20459;-74
2021/04/01 02:25:45;;;;;;;13.87;6.17;;;15.00;62.70;;;;;;4960130;28;20473;-74
2021/04/01 02:28:12;;;;;;;8.17;5.50;;;15.00;63.70;;;;;;4961293;28;20469;-72
2021/04/01 02:30:39;;;;;;;8.07;5.57;;;14.90;64.10;;;;;;4960199;28;20454;-75
2021/04/01 02:33:06;;;;;;;6.40;5.20;;;14.90;65.10;;;;;;4962767;28;20445;-74
2021/04/01 02:35:32;;;;;;;8.77;5.43;;;14.80;65.80;;;;;;4960431;28;20436;-74
2021/04/01 02:37:58;;;;;;;11.83;5.43;;;14.90;66.00;;;;;;4964572;28;20513;-75
2021/04/01 02:40:24;;;;;;;16.17;5.80;;;14.80;66.00;;;;;;4963728;28;20608;-74
2021/04/01 02:42:49;;;;;;;11.23;5.67;;;14.80;66.20;;;;;;4960410;28;20202;-73
2021/04/01 02:45:16;;;;;;;6.43;5.80;;;14.70;67.00;;;;;;4964096;28;20211;-72
2021/04/01 02:47:41;;;;;;;7.40;5.33;;;14.70;67.70;;;;;;4965855;28;20190;-75
2021/04/01 02:50:09;;;;;;;6.67;5.27;;;14.70;68.40;;;;;;4959186;28;20986;-75
2021/04/01 02:52:36;;;;;;;8.73;6.77;;;14.60;68.60;;;;;;4966364;28;20190;-73
2021/04/01 02:55:04;;;;;;;8.13;6.13;;;14.60;69.00;;;;;;4961416;28;20551;-74
2021/04/01 02:57:30;;;;;;;6.67;5.90;;;14.60;69.90;;;;;;4964043;28;20569;-74
2021/04/01 02:59:56;;;;;;;8.13;5.60;;;14.60;70.30;;;;;;4962836;28;20973;-75
2021/04/01 03:02:23;;;;;;;6.77;6.07;;;14.70;70.70;;;;;;4962795;28;20190;-74
2021/04/01 03:04:49;;;;;;;7.90;5.63;;;14.60;72.30;;;;;;4963281;28;21011;-73
2021/04/01 03:07:14;;;;;;;7.00;5.87;;;14.60;71.80;;;;;;4963002;28;20446;-74
2021/04/01 03:09:40;;;;;;;7.27;4.97;;;14.60;72.10;;;;;;4965140;28;20360;-73
2021/04/01 03:12:06;;;;;;;7.40;5.57;;;14.60;72.60;;;;;;4963237;28;20191;-74
2021/04/01 03:14:32;;;;;;;5.80;5.10;;;14.50;72.60;;;;;;4963310;28;20242;-74
2021/04/01 03:16:58;;;;;;;7.07;5.60;;;14.50;73.00;;;;;;4966804;28;20454;-73
2021/04/01 03:19:23;;;;;;;6.73;5.40;;;14.50;73.80;;;;;;4941795;28;20920;-73
2021/04/01 03:21:49;;;;;;;9.50;5.70;;;14.40;74.10;;;;;;4961896;28;20190;-73
2021/04/01 03:24:16;;;;;;;11.20;5.53;;;14.40;75.70;;;;;;4964914;28;20213;-74
2021/04/01 03:26:42;;;;;;;14.90;6.60;;;14.50;74.80;;;;;;4958754;28;20182;-73
2021/04/01 03:29:08;;;;;;;8.37;6.20;;;14.40;75.20;;;;;;4961558;28;20454;-73
2021/04/01 03:31:35;;;;;;;8.43;5.80;;;14.40;76.00;;;;;;4964910;28;20289;-73
2021/04/01 03:34:00;;;;;;;11.20;6.33;;;14.40;75.60;;;;;;4961667;28;20953;-72
2021/04/01 03:36:26;;;;;;;9.53;6.50;;;14.30;76.60;;;;;;4964182;28;20438;-73
2021/04/01 03:38:53;;;;;;;11.83;6.20;;;14.30;77.20;;;;;;4964294;28;20553;-72
2021/04/01 03:41:18;;;;;;;6.90;6.30;;;14.30;77.40;;;;;;4963197;28;20443;-74
2021/04/01 03:43:44;;;;;;;13.70;6.77;;;14.20;78.10;;;;;;4963579;28;20462;-73
2021/04/01 03:46:12;;;;;;;9.07;7.53;;;14.20;79.00;;;;;;4963770;28;20205;-73
2021/04/01 03:48:37;;;;;;;9.43;6.37;;;14.20;79.70;;;;;;4963760;28;20182;-74
2021/04/01 03:51:03;;;;;;;12.47;5.87;;;14.10;80.50;;;;;;4964186;28;20449;-74
2021/04/01 03:53:29;;;;;;;7.60;6.40;;;14.10;81.30;;;;;;4961152;28;20187;-72
2021/04/01 03:55:54;;;;;;;9.53;6.70;;;14.10;81.40;;;;;;4964896;28;20437;-72
2021/04/01 04:08:49;;;;;;;7.63;6.20;;;14.20;83.50;;;;;;4962723;28;20516;-74
2021/04/01 04:11:32;;;;;;;6.67;4.93;;;14.20;83.90;;;;;;4965467;28;20944;-73
2021/04/01 04:14:11;;;;;;;7.03;4.93;;;14.20;82.30;;;;;;4961531;28;20514;-73
2021/04/01 04:16:37;;;;;;;6.77;5.40;;;14.20;81.80;;;;;;4959570;28;20438;-73
2021/04/01 04:19:04;;;;;;;7.00;4.67;;;14.10;81.90;;;;;;4964909;28;20483;-72
2021/04/01 04:21:30;;;;;;;7.50;5.23;;;14.10;81.10;;;;;;4962982;28;20292;-73
2021/04/01 04:23:55;;;;;;;5.33;4.67;;;14.10;81.40;;;;;;4961928;28;20946;-75
2021/04/01 04:26:23;;;;;;;5.53;4.90;;;14.00;81.50;;;;;;4961214;28;20195;-75
2021/04/01 04:28:48;;;;;;;4.93;4.40;;;14.00;82.00;;;;;;4947692;28;20434;-74
2021/04/01 04:31:14;;;;;;;8.73;5.10;;;14.00;82.90;;;;;;4965599;28;20558;-74
2021/04/01 04:33:40;;;;;;;5.00;4.40;;;14.00;83.00;;;;;;4965904;28;20229;-74
2021/04/01 04:36:06;;;;;;;9.13;5.07;;;14.10;83.80;;;;;;4948412;28;20199;-75
2021/04/01 04:38:32;;;;;;;10.17;5.50;;;14.00;85.30;;;;;;4960551;28;20187;-74
2021/04/01 04:40:58;;;;;;;7.00;6.00;;;14.00;86.40;;;;;;4963123;28;20456;-75
2021/04/01 04:43:25;;;;;;;8.53;5.40;;;14.00;86.60;;;;;;4945647;28;20205;-75
2021/04/01 04:45:51;;;;;;;6.20;5.20;;;14.00;86.80;;;;;;4961867;28;20234;-73
2021/04/01 04:48:17;;;;;;;7.20;5.80;;;13.90;87.50;;;;;;4966792;28;20426;-75
2021/04/01 04:50:43;;;;;;;7.87;5.73;;;13.90;88.70;;;;;;4961921;28;20604;-73
2021/04/01 04:53:09;;;;;;;12.50;5.10;;;13.90;89.30;;;;;;4965098;28;20253;-73
2021/04/01 04:55:35;;;;;;;8.40;6.03;;;13.90;89.00;;;;;;4961341;28;20545;-73
2021/04/01 05:01:13;;;;;;;8.87;5.67;;;13.90;89.60;;;;;;4965260;28;20222;-74
2021/04/01 05:05:56;;;;;;;9.30;5.00;;;13.70;89.50;;;;;;4962490;28;20468;-74
2021/04/01 05:08:22;;;;;;;9.33;5.67;;;13.70;90.00;;;;;;4960745;28;20433;-74
2021/04/01 05:10:49;;;;;;;10.93;6.00;;;13.70;90.30;;;;;;4962951;28;20469;-73
2021/04/01 05:13:15;;;;;;;6.80;5.27;;;13.70;90.30;;;;;;4960010;28;20214;-74
2021/04/01 05:15:47;;;;;;;6.20;5.00;;;13.80;89.90;;;;;;4960135;28;20495;-74
2021/04/01 05:18:20;;;;;;;5.70;4.77;;;13.60;90.60;;;;;;4958761;28;20446;-73
2021/04/01 05:20:48;;;;;;;9.10;5.43;;;13.60;91.00;;;;;;4958045;28;20466;-74
2021/04/01 05:25:54;;;;;;;5.93;5.33;;;13.50;91.80;;;;;;4960607;28;20571;-75
2021/04/01 05:28:32;;;;;;;10.03;5.70;;;13.40;92.00;;;;;;4963413;28;20434;-73
2021/04/01 05:30:59;;;;;;;6.67;5.50;;;13.30;92.80;;;;;;4960456;28;20449;-73
2021/04/01 05:33:32;;;;;;;5.80;4.80;;;13.30;93.40;;;;;;4960889;28;20474;-72
2021/04/01 05:35:58;;;;;;;8.17;5.77;;;13.10;94.20;;;;;;4963989;28;20465;-74
2021/04/01 05:38:24;;;;;;;10.13;5.53;;;13.10;94.60;;;;;;4939389;28;21026;-74
2021/04/01 05:40:50;;;;;;;6.40;4.97;;;13.20;94.60;;;;;;4961787;28;20557;-74
2021/04/01 05:43:20;;;;;;;7.80;6.07;;;13.10;95.30;;;;;;4960856;28;20242;-74
2021/04/01 05:46:32;;;;;;;15.47;5.50;;;13.00;96.30;;;;;;4961724;28;20497;-74
2021/04/01 05:48:40;;;;;;;7.30;5.87;;;13.00;97.20;;;;;;4954591;28;20473;-74
2021/04/01 06:04:40;;;;;;;5.77;5.13;;;13.10;99.00;;;;;;4952985;28;20519;-74
2021/04/01 06:07:15;;;;;;;12.57;5.67;;;13.10;98.70;;;;;;4960272;28;20454;-74
2021/04/01 06:09:48;;;;;;;6.10;5.60;;;13.10;98.80;;;;;;4964076;28;20497;-74
2021/04/01 06:12:14;;;;;;;6.40;5.30;;;13.10;99.10;;;;;;4960587;28;20439;-74
2021/04/01 06:14:57;;;;;;;9.70;5.57;;;13.20;99.30;;;;;;4954738;28;20509;-74
2021/04/01 06:17:25;;;;;;;7.93;5.27;;;13.20;99.50;;;;;;4961611;28;20888;-75
2021/04/01 06:20:13;;;;;;;5.10;4.60;;;13.10;99.90;;;;;;4965530;28;20449;-74
2021/04/01 06:22:41;;;;;;;7.73;5.37;;;13.20;99.90;;;;;;4964522;28;20530;-74
2021/04/01 06:25:15;;;;;;;8.70;5.27;;;13.20;99.90;;;;;;4964971;28;20485;-74
2021/04/01 06:27:52;;;;;;;7.30;4.97;;;13.20;99.90;;;;;;4963542;28;20449;-75
2021/04/01 06:30:38;;;;;;;16.27;6.37;;;13.30;99.90;;;;;;4963546;28;20496;-75
2021/04/01 06:33:07;;;;;;;6.17;4.97;;;13.40;99.90;;;;;;4965271;28;20449;-74
2021/04/01 06:35:47;;;;;;;5.43;4.80;;;13.40;99.90;;;;;;4967545;28;20442;-76
2021/04/01 06:40:58;;;;;;;6.23;5.20;;;13.60;99.70;;;;;;4964837;28;20461;-72
2021/04/01 06:43:48;;;;;;;6.57;5.43;;;13.70;99.10;;;;;;4966051;28;21029;-74
2021/04/01 06:46:16;;;;;;;9.23;5.50;;;13.80;99.20;;;;;;4963726;28;20427;-74
2021/04/01 06:51:23;;;;;;;7.53;5.33;;;14.00;98.40;;;;;;4964600;28;20440;-75
2021/04/01 06:54:05;;;;;;;7.87;6.67;;;14.10;97.50;;;;;;4963147;28;21017;-73
2021/04/01 06:59:37;;;;;;;6.30;5.63;;;14.50;96.20;;;;;;4960607;28;20449;-75
2021/04/01 07:02:06;;;;;;;10.37;5.60;;;14.60;95.10;;;;;;4960419;28;20454;-74
2021/04/01 07:04:34;;;;;;;5.87;5.27;;;14.80;94.10;;;;;;4965704;28;20460;-73
2021/04/01 07:07:11;;;;;;;7.90;5.90;;;14.80;93.60;;;;;;4965032;28;20437;-76
2021/04/01 07:12:17;;;;;;;11.33;5.67;;;15.10;92.70;;;;;;4965312;28;20574;-74
2021/04/01 07:14:47;;;;;;;7.23;6.10;;;15.20;92.70;;;;;;4963673;28;20429;-74
2021/04/01 07:17:28;;;;;;;9.00;5.70;;;15.30;92.80;;;;;;4964360;28;20525;-75
2021/04/01 07:23:03;;;;;;;7.90;5.03;;;15.30;92.20;;;;;;4965166;28;20517;-74
2021/04/01 07:31:48;;;;;;;6.60;6.00;;;15.40;91.70;;;;;;4960906;28;20466;-75
2021/04/01 07:45:45;;;;;;;6.77;5.97;;;16.00;90.90;;;;;;4963720;28;20464;-74
2021/04/01 07:47:58;;;;;;;7.03;5.03;;;16.20;90.30;;;;;;4883222;29;20528;-72
2021/04/01 07:50:26;;;;;;;6.43;5.87;;;16.40;90.00;;;;;;4883351;29;20477;-74
2021/04/01 07:52:55;;;;;;;8.53;5.80;;;16.60;88.80;;;;;;4941203;28;22614;-75
2021/04/01 07:55:44;;;;;;;8.37;6.03;;;16.60;84.40;;;;;;4946426;28;20433;-75
2021/04/01 07:58:28;;;;;;;6.13;5.63;;;16.80;82.80;;;;;;4962480;28;20449;-77
2021/04/01 08:06:31;;;;;;;6.57;5.40;;;17.30;80.90;;;;;;4962874;28;21015;-73
2021/04/01 08:09:09;;;;;;;6.70;6.10;;;17.30;78.50;;;;;;4960410;28;20470;-75
2021/04/01 08:11:45;;;;;;;7.10;6.50;;;17.50;76.80;;;;;;4947092;28;20449;-75
2021/04/01 08:14:27;;;;;;;9.07;6.20;;;17.60;74.80;;;;;;4964115;28;20434;-76
2021/04/01 08:16:58;;;;;;;7.40;5.40;;;17.90;74.80;;;;;;4946318;28;20672;-73
2021/04/01 08:19:27;;;;;;;7.23;6.53;;;18.10;73.50;;;;;;4959318;28;20528;-74
2021/04/01 08:21:54;;;;;;;6.97;5.33;;;18.20;72.60;;;;;;4965179;28;20807;-74
2021/04/01 08:24:32;;;;;;;7.60;4.90;;;18.30;71.70;;;;;;4962217;28;20462;-77
2021/04/01 08:27:34;;;;;;;8.50;5.90;;;18.30;71.00;;;;;;4963296;28;20496;-68
2021/04/01 08:36:02;;;;;;;6.67;5.77;;;18.70;69.30;;;;;;4897156;29;20451;-75
2021/04/01 08:38:28;;;;;;;8.00;5.90;;;18.60;67.80;;;;;;4947845;28;20526;-74
2021/04/01 08:41:02;;;;;;;6.33;5.57;;;18.70;68.40;;;;;;4963157;28;20462;-74
2021/04/01 08:43:55;;;;;;;14.80;6.23;;;18.80;67.50;;;;;;4964571;28;20893;-74
2021/04/01 08:46:48;;;;;;;5.63;5.13;;;18.80;66.80;;;;;;4962471;28;21024;-74
2021/04/01 08:49:35;;;;;;;6.80;6.10;;;18.90;67.10;;;;;;4960762;28;20810;-74
2021/04/01 08:52:09;;;;;;;6.87;6.20;;;19.10;66.40;;;;;;4962240;28;20501;-74
2021/04/01 08:54:50;;;;;;;9.70;6.10;;;19.30;65.70;;;;;;4959211;28;20458;-72
2021/04/01 08:57:35;;;;;;;7.23;6.50;;;19.40;65.00;;;;;;4963879;28;20707;-74
2021/04/01 09:00:08;;;;;;;8.00;7.07;;;19.60;64.40;;;;;;4961512;28;20465;-75
2021/04/01 09:02:35;;;;;;;8.70;6.40;;;19.70;64.30;;;;;;4960090;28;20512;-74
2021/04/01 09:05:04;;;;;;;7.53;6.03;;;20.30;63.80;;;;;;4960455;28;20474;-75
2021/04/01 09:07:42;;;;;;;7.57;6.70;;;21.80;61.20;;;;;;4963813;28;20430;-75
2021/04/01 09:10:25;;;;;;;9.33;6.90;;;23.80;58.60;;;;;;4962234;28;20449;-75
2021/04/01 09:18:27;;;;;;;7.40;6.70;;;27.70;46.50;;;;;;4963775;28;20453;-75
2021/04/01 09:20:56;;;;;;;6.47;5.87;;;29.10;44.40;;;;;;4960042;28;20501;-73
2021/04/01 09:23:41;;;;;;;7.80;6.67;;;29.80;42.80;;;;;;4961046;28;20514;-74
2021/04/01 09:26:09;;;;;;;6.40;5.80;;;30.80;40.80;;;;;;4962090;28;20493;-74
2021/04/01 09:28:38;;;;;;;6.90;6.27;;;30.80;39.30;;;;;;4960975;28;20529;-74
2021/04/01 09:31:05;;;;;;;11.83;6.80;;;31.40;38.70;;;;;;4961728;28;20480;-75
2021/04/01 09:33:33;;;;;;;16.00;10.97;;;31.60;37.90;;;;;;4963763;28;20524;-74
2021/04/01 09:36:18;;;;;;;6.73;6.23;;;31.60;37.20;;;;;;4958389;28;20442;-73
2021/04/01 09:38:53;;;;;;;7.70;5.73;;;32.20;36.70;;;;;;4943090;28;20956;-74
2021/04/01 09:41:31;;;;;;;5.33;4.83;;;32.40;35.80;;;;;;4956512;28;20421;-74
2021/04/01 09:44:04;;;;;;;8.73;7.27;;;32.80;35.00;;;;;;4946215;28;20409;-75
2021/04/01 09:46:31;;;;;;;10.30;8.67;;;33.10;34.60;;;;;;4962020;28;20441;-74
2021/04/01 09:49:04;;;;;;;6.47;5.90;;;33.30;34.10;;;;;;4960972;28;20441;-75
2021/04/01 09:51:32;;;;;;;9.27;6.30;;;33.10;33.50;;;;;;4963066;28;20462;-75
2021/04/01 09:53:58;;;;;;;6.23;5.63;;;32.60;33.80;;;;;;4962173;28;20409;-73
2021/04/01 09:56:30;;;;;;;7.57;5.67;;;31.70;33.20;;;;;;4961351;28;20476;-75
2021/04/01 09:58:56;;;;;;;6.13;5.07;;;31.80;34.10;;;;;;4964016;28;20440;-74
2021/04/01 10:01:28;;;;;;;5.47;5.00;;;32.20;34.00;;;;;;4963064;28;20474;-73
2021/04/01 10:04:07;;;;;;;9.60;5.93;;;32.20;33.50;;;;;;4965392;28;20564;-74
2021/04/01 10:06:49;;;;;;;6.63;5.93;;;32.20;33.20;;;;;;4965282;28;20513;-74
2021/04/01 10:09:17;;;;;;;6.83;6.23;;;31.80;32.80;;;;;;4941681;28;20457;-75
2021/04/01 10:11:49;;;;;;;8.43;5.90;;;31.10;33.20;;;;;;4957484;28;20408;-74
2021/04/01 10:14:16;;;;;;;6.93;4.80;;;30.60;33.20;;;;;;4958659;28;20480;-75
2021/04/01 10:17:05;;;;;;;6.30;5.07;;;30.10;33.80;;;;;;4956864;28;20453;-74
2021/04/01 10:19:39;;;;;;;6.27;5.67;;;29.00;34.90;;;;;;4961176;28;20451;-75
2021/04/01 10:22:06;;;;;;;7.37;5.10;;;28.90;35.70;;;;;;4941629;28;20449;-74
2021/04/01 10:24:37;;;;;;;6.30;5.73;;;29.20;36.60;;;;;;4958120;28;20436;-74
2021/04/01 10:32:08;;;;;;;6.27;5.60;;;28.90;36.20;;;;;;4960296;28;20464;-72
2021/04/01 10:34:52;;;;;;;5.20;4.80;;;28.70;36.90;;;;;;4960114;28;20423;-73
2021/04/01 10:37:20;;;;;;;5.77;5.33;;;28.60;37.30;;;;;;4958920;28;20776;-74
2021/04/01 10:39:45;;;;;;;6.87;5.20;;;28.00;37.10;;;;;;4955273;28;20428;-71
2021/04/01 10:42:14;;;;;;;5.60;5.10;;;28.10;37.30;;;;;;4961434;28;20761;-73
2021/04/01 10:44:40;;;;;;;5.87;5.10;;;28.40;37.50;;;;;;4960664;28;20226;-71
2021/04/01 10:47:08;;;;;;;9.90;5.50;;;29.20;36.80;;;;;;4960054;28;20406;-71
2021/04/01 10:49:36;;;;;;;6.00;5.60;;;29.30;36.40;;;;;;4962210;28;20417;-76
2021/04/01 10:52:12;;;;;;;6.00;5.40;;;28.50;37.00;;;;;;4958157;28;20420;-72
2021/04/01 10:54:46;;;;;;;7.60;5.17;;;28.30;37.50;;;;;;4958114;28;20445;-71
2021/04/01 10:57:26;;;;;;;6.50;5.90;;;27.70;37.00;;;;;;4962184;28;20442;-68
2021/04/01 10:59:52;;;;;;;6.10;5.50;;;27.60;37.40;;;;;;4961569;28;20999;-73
2021/04/01 11:02:23;;;;;;;6.90;5.20;;;27.30;38.10;;;;;;4960425;28;20485;-72
2021/04/01 11:04:55;;;;;;;6.53;5.80;;;27.30;38.40;;;;;;4960871;28;20506;-72
2021/04/01 11:07:21;;;;;;;6.13;5.10;;;27.30;38.30;;;;;;4960269;28;20434;-72
2021/04/01 11:09:49;;;;;;;6.43;5.80;;;27.50;38.00;;;;;;4959087;28;20792;-71
2021/04/01 11:12:19;;;;;;;6.57;5.87;;;28.10;37.30;;;;;;4963810;28;20843;-72
2021/04/01 11:14:47;;;;;;;6.57;5.50;;;29.40;36.80;;;;;;4925901;28;20529;-73
2021/04/01 11:17:23;;;;;;;6.40;5.63;;;30.60;36.30;;;;;;4958034;28;20465;-73
2021/04/01 11:19:52;;;;;;;5.83;5.30;;;32.20;35.40;;;;;;4960299;28;20464;-73
2021/04/01 11:22:19;;;;;;;5.90;5.47;;;33.60;34.00;;;;;;4960744;28;20576;-72
2021/04/01 11:24:45;;;;;;;5.80;5.30;;;33.70;32.20;;;;;;4964525;28;20505;-72
2021/04/01 11:27:19;;;;;;;6.70;5.90;;;33.60;32.40;;;;;;4963403;28;20426;-73
2021/04/01 11:29:58;;;;;;;6.47;5.87;;;34.00;32.00;;;;;;4964285;28;21018;-73
2021/04/01 11:32:27;;;;;;;6.57;6.07;;;34.40;31.90;;;;;;4963165;28;20453;-72
2021/04/01 11:34:55;;;;;;;6.53;5.10;;;35.40;30.90;;;;;;4964088;28;20494;-72
2021/04/01 11:37:24;;;;;;;10.10;6.30;;;35.50;30.60;;;;;;4963971;28;20548;-71
2021/04/01 11:39:57;;;;;;;6.30;5.23;;;34.90;30.30;;;;;;4963634;28;20596;-73
2021/04/01 11:42:23;;;;;;;8.33;5.80;;;34.90;30.50;;;;;;4963590;28;20571;-75
2021/04/01 11:44:57;;;;;;;6.10;5.53;;;34.60;30.60;;;;;;4963063;28;20863;-73
2021/04/01 11:47:23;;;;;;;6.23;5.80;;;33.50;31.00;;;;;;4964305;28;20419;-73
2021/04/01 11:49:52;;;;;;;5.63;5.20;;;33.90;32.00;;;;;;4965875;28;20477;-73
2021/04/01 11:52:19;;;;;;;8.80;6.70;;;35.10;31.80;;;;;;4962628;28;20448;-73
2021/04/01 11:54:46;;;;;;;19.00;16.57;;;36.00;30.20;;;;;;4961260;28;20442;-76
2021/04/01 11:57:30;;;;;;;6.87;6.27;;;36.20;30.40;;;;;;4941785;28;20456;-73
2021/04/01 12:00:10;;;;;;;6.03;5.63;;;36.40;30.00;;;;;;4966348;28;20560;-73
2021/04/01 12:05:23;;;;;;;7.10;6.40;;;37.20;29.60;;;;;;4960463;28;20516;-73
2021/04/01 12:07:49;;;;;;;6.50;5.90;;;36.80;29.50;;;;;;4963402;28;20701;-72
2021/04/01 12:10:16;;;;;;;6.00;5.60;;;36.60;29.20;;;;;;4965326;28;21021;-73
2021/04/01 12:12:42;;;;;;;6.70;6.20;;;36.50;29.80;;;;;;4942802;28;20433;-73
2021/04/01 12:15:08;;;;;;;7.17;6.60;;;35.70;28.90;;;;;;4961395;28;21037;-73
2021/04/01 12:17:36;;;;;;;8.20;6.23;;;35.60;29.40;;;;;;4962280;28;20186;-73
2021/04/01 12:20:06;;;;;;;6.50;6.00;;;35.30;29.60;;;;;;4961891;28;20504;-73
2021/04/01 12:22:37;;;;;;;7.07;6.37;;;35.10;30.00;;;;;;4964861;28;21044;-73
2021/04/01 12:25:06;;;;;;;8.70;6.03;;;35.30;29.90;;;;;;4959607;28;20551;-76
2021/04/01 12:27:32;;;;;;;7.97;6.23;;;35.40;30.00;;;;;;4958999;28;20450;-74
2021/04/01 12:29:59;;;;;;;6.80;6.27;;;35.40;29.60;;;;;;4963129;28;20444;-74
2021/04/01 12:32:30;;;;;;;6.03;5.63;;;36.10;29.80;;;;;;4963926;28;20490;-74
2021/04/01 12:35:06;;;;;;;5.33;4.87;;;36.60;29.30;;;;;;4962768;28;20490;-74
2021/04/01 12:37:31;;;;;;;6.70;6.00;;;36.70;29.30;;;;;;4963155;28;20412;-74
2021/04/01 12:40:12;;;;;;;7.90;6.07;;;36.80;29.00;;;;;;4957089;28;20568;-74
2021/04/01 12:42:38;;;;;;;6.27;5.87;;;36.70;29.20;;;;;;4959978;28;20202;-74
2021/04/01 12:45:15;;;;;;;6.60;5.93;;;37.10;28.90;;;;;;4959368;28;20500;-74
2021/04/01 12:47:41;;;;;;;7.07;6.57;;;37.00;28.70;;;;;;4961301;28;20209;-74
2021/04/01 12:50:07;;;;;;;6.63;6.13;;;35.60;28.40;;;;;;4959354;28;20477;-73
2021/04/01 12:52:51;;;;;;;6.73;6.13;;;34.30;29.30;;;;;;4953677;28;20449;-73
2021/04/01 12:55:45;;;;;;;13.50;5.83;;;33.10;29.60;;;;;;4959077;28;20456;-71
2021/04/01 12:58:28;;;;;;;5.87;5.27;;;32.40;30.50;;;;;;4961721;28;20445;-73
2021/04/01 13:00:58;;;;;;;6.90;6.30;;;31.80;31.20;;;;;;4955540;28;20554;-72
2021/04/01 13:03:24;;;;;;;6.80;6.20;;;31.40;31.70;;;;;;4959938;28;20404;-72
2021/04/01 13:05:54;;;;;;;6.27;5.73;;;31.50;32.10;;;;;;4959875;28;20496;-73
2021/04/01 13:10:46;;;;;;;9.43;5.80;;;31.50;31.60;;;;;;4956698;28;20448;-73
2021/04/01 13:13:12;;;;;;;6.50;6.00;;;31.10;31.70;;;;;;4959058;28;20732;-72
2021/04/01 13:15:38;;;;;;;7.93;6.50;;;30.60;31.60;;;;;;4957876;28;20433;-73
2021/04/01 13:18:05;;;;;;;7.50;6.60;;;30.30;32.50;;;;;;4960532;28;20499;-73
2021/04/01 13:20:32;;;;;;;6.13;5.63;;;30.10;33.10;;;;;;4959910;28;20483;-72
2021/04/01 13:25:27;;;;;;;7.20;5.93;;;29.80;33.50;;;;;;4939023;28;20539;-73
2021/04/01 13:27:53;;;;;;;6.53;6.03;;;29.60;33.80;;;;;;4957463;28;20428;-73
2021/04/01 13:30:22;;;;;;;6.17;5.67;;;29.40;33.70;;;;;;4934919;28;20523;-73
2021/04/01 13:33:01;;;;;;;5.97;5.47;;;29.90;34.00;;;;;;4940336;28;20420;-73
2021/04/01 13:38:04;;;;;;;6.70;6.20;;;31.00;32.40;;;;;;4958695;28;20459;-72
2021/04/01 13:40:31;;;;;;;7.43;5.77;;;31.00;32.00;;;;;;4958239;28;20651;-71
2021/04/01 13:42:58;;;;;;;6.23;5.73;;;30.80;32.80;;;;;;4955087;28;20421;-73
2021/04/01 13:45:25;;;;;;;6.13;5.30;;;30.70;32.70;;;;;;4941888;28;20509;-72
2021/04/01 13:48:04;;;;;;;11.70;6.40;;;30.70;32.90;;;;;;4939673;28;20430;-73
2021/04/01 13:50:35;;;;;;;4.93;4.50;;;30.90;32.60;;;;;;4956188;28;20650;-74
2021/04/01 13:55:41;;;;;;;8.13;5.87;;;31.90;32.30;;;;;;4953475;28;20870;-72
2021/04/01 14:09:35;;;;;;;6.13;5.60;;;35.20;29.40;;;;;;4958751;28;20422;-73
2021/04/01 14:12:07;;;;;;;7.30;6.53;;;34.90;29.20;;;;;;4954029;28;20442;-73
2021/04/01 14:14:34;;;;;;;7.73;7.03;;;35.40;29.20;;;;;;4955302;28;20442;-72
2021/04/01 14:17:01;;;;;;;8.80;7.53;;;35.30;29.00;;;;;;4956265;28;21024;-73
2021/04/01 14:19:27;;;;;;;8.40;7.40;;;36.50;29.00;;;;;;4956423;28;20504;-72
2021/04/01 14:22:02;;;;;;;10.77;7.40;;;36.70;28.30;;;;;;4956354;28;20441;-72
2021/04/01 14:24:38;;;;;;;9.93;7.93;;;36.60;28.70;;;;;;4955282;28;20469;-73
2021/04/01 14:29:56;;;;;;;12.23;8.50;;;34.20;29.40;;;;;;4946067;28;20508;-72
2021/04/01 14:32:26;;;;;;;11.83;9.80;;;33.10;30.40;;;;;;4961974;28;20481;-72
2021/04/01 14:34:57;;;;;;;12.33;9.73;;;32.60;31.40;;;;;;4959161;28;20974;-73
2021/04/01 14:37:30;;;;;;;9.80;8.80;;;32.80;31.50;;;;;;4964896;28;20547;-72
2021/04/01 14:40:02;;;;;;;13.13;11.27;;;33.60;30.70;;;;;;4962544;28;20571;-73
2021/04/01 14:45:10;;;;;;;10.27;9.17;;;33.80;30.10;;;;;;4963854;28;21208;-73
2021/04/01 14:47:36;;;;;;;17.43;10.70;;;33.60;30.00;;;;;;4962090;28;20714;-73
2021/04/01 14:50:08;;;;;;;12.30;10.83;;;33.60;30.00;;;;;;4964256;28;20470;-74
2021/04/01 14:52:35;;;;;;;15.23;10.97;;;33.60;29.70;;;;;;4942621;28;20191;-71
2021/04/01 14:55:02;;;;;;;18.13;11.00;;;33.70;29.70;;;;;;4966130;28;20536;-73